sensor_id;sensor_type;location;lat;lon;timestamp;P1;durP1;ratioP1;P2;durP2;ratioP2
38089;SDS011;23904;52.322;10.232;2023-05-13T00:00:39;9.88;;;4.93;;
38089;SDS011;23904;52.322;10.232;2023-05-13T00:03:05;8.07;;;5.20;;
38089;SDS011;23904;52.322;10.232;2023-05-13T00:05:31;8.20;;;4.55;;
38089;SDS011;23904;52.322;10.232;2023-05-13T00:07:56;7.30;;;4.47;;
38089;SDS011;23904;52.322;10.232;2023-05-13T00:10:25;7.82;;;5.15;;
38089;SDS011;23904;52.322;10.232;2023-05-13T00:12:51;10.68;;;4.55;;
38089;SDS011;23904;52.322;10.232;2023-05-13T00:15:16;8.30;;;4.55;;
38089;SDS011;23904;52.322;10.232;2023-05-13T00:17:42;5.68;;;4.45;;
38089;SDS011;23904;52.322;10.232;2023-05-13T00:20:08;9.60;;;5.30;;
38089;SDS011;23904;52.322;10.232;2023-05-13T00:22:33;9.77;;;4.25;;
38089;SDS011;23904;52.322;10.232;2023-05-13T00:24:59;11.05;;;4.30;;
38089;SDS011;23904;52.322;10.232;2023-05-13T00:27:24;9.27;;;4.88;;
38089;SDS011;23904;52.322;10.232;2023-05-13T00:29:50;6.55;;;4.65;;
38089;SDS011;23904;52.322;10.232;2023-05-13T00:32:16;11.20;;;4.82;;
38089;SDS011;23904;52.322;10.232;2023-05-13T00:34:41;5.97;;;4.30;;
38089;SDS011;23904;52.322;10.232;2023-05-13T00:37:07;6.65;;;4.35;;
38089;SDS011;23904;52.322;10.232;2023-05-13T00:39:34;9.75;;;5.18;;
38089;SDS011;23904;52.322;10.232;2023-05-13T00:42:00;8.55;;;4.70;;
38089;SDS011;23904;52.322;10.232;2023-05-13T00:44:27;6.47;;;4.68;;
38089;SDS011;23904;52.322;10.232;2023-05-13T00:46:52;7.53;;;4.95;;
38089;SDS011;23904;52.322;10.232;2023-05-13T00:49:18;5.97;;;5.22;;
38089;SDS011;23904;52.322;10.232;2023-05-13T00:51:44;6.15;;;5.10;;
38089;SDS011;23904;52.322;10.232;2023-05-13T00:54:09;8.60;;;5.22;;
38089;SDS011;23904;52.322;10.232;2023-05-13T00:56:36;10.18;;;5.20;;
38089;SDS011;23904;52.322;10.232;2023-05-13T00:59:02;10.45;;;4.88;;
38089;SDS011;23904;52.322;10.232;2023-05-13T01:01:29;10.70;;;5.38;;
38089;SDS011;23904;52.322;10.232;2023-05-13T01:07:00;6.80;;;4.80;;
38089;SDS011;23904;52.322;10.232;2023-05-13T01:10:22;9.98;;;5.30;;
38089;SDS011;23904;52.322;10.232;2023-05-13T01:13:30;8.85;;;5.10;;
38089;SDS011;23904;52.322;10.232;2023-05-13T01:16:11;7.78;;;5.57;;
38089;SDS011;23904;52.322;10.232;2023-05-13T01:18:51;8.75;;;5.88;;
38089;SDS011;23904;52.322;10.232;2023-05-13T01:21:23;6.75;;;4.95;;
38089;SDS011;23904;52.322;10.232;2023-05-13T01:23:52;13.40;;;5.53;;
38089;SDS011;23904;52.322;10.232;2023-05-13T01:26:19;8.52;;;5.35;;
38089;SDS011;23904;52.322;10.232;2023-05-13T01:28:47;9.02;;;5.50;;
38089;SDS011;23904;52.322;10.232;2023-05-13T01:31:13;7.15;;;5.72;;
38089;SDS011;23904;52.322;10.232;2023-05-13T01:33:39;6.32;;;5.57;;
38089;SDS011;23904;52.322;10.232;2023-05-13T01:36:06;7.18;;;5.32;;
38089;SDS011;23904;52.322;10.232;2023-05-13T01:38:34;7.78;;;4.78;;
38089;SDS011;23904;52.322;10.232;2023-05-13T01:41:00;12.00;;;5.78;;
38089;SDS011;23904;52.322;10.232;2023-05-13T01:43:26;7.20;;;4.90;;
38089;SDS011;23904;52.322;10.232;2023-05-13T01:45:51;10.15;;;5.38;;
38089;SDS011;23904;52.322;10.232;2023-05-13T01:48:17;10.93;;;5.47;;
38089;SDS011;23904;52.322;10.232;2023-05-13T01:50:43;8.85;;;5.68;;
38089;SDS011;23904;52.322;10.232;2023-05-13T01:53:10;8.05;;;5.55;;
38089;SDS011;23904;52.322;10.232;2023-05-13T01:55:36;9.02;;;5.50;;
38089;SDS011;23904;52.322;10.232;2023-05-13T01:58:01;11.38;;;5.32;;
38089;SDS011;23904;52.322;10.232;2023-05-13T02:00:27;10.93;;;5.93;;
38089;SDS011;23904;52.322;10.232;2023-05-13T02:02:52;7.38;;;5.05;;
38089;SDS011;23904;52.322;10.232;2023-05-13T02:05:18;8.68;;;5.45;;
38089;SDS011;23904;52.322;10.232;2023-05-13T02:07:43;10.77;;;4.97;;
38089;SDS011;23904;52.322;10.232;2023-05-13T02:10:09;7.25;;;4.57;;
38089;SDS011;23904;52.322;10.232;2023-05-13T02:12:35;8.32;;;5.03;;
38089;SDS011;23904;52.322;10.232;2023-05-13T02:15:01;10.13;;;4.70;;
38089;SDS011;23904;52.322;10.232;2023-05-13T02:17:26;12.73;;;4.85;;
38089;SDS011;23904;52.322;10.232;2023-05-13T02:19:52;8.05;;;4.82;;
38089;SDS011;23904;52.322;10.232;2023-05-13T02:22:17;11.68;;;5.25;;
38089;SDS011;23904;52.322;10.232;2023-05-13T02:24:43;8.07;;;5.28;;
38089;SDS011;23904;52.322;10.232;2023-05-13T02:27:08;10.40;;;4.95;;
38089;SDS011;23904;52.322;10.232;2023-05-13T02:29:36;9.50;;;4.93;;
38089;SDS011;23904;52.322;10.232;2023-05-13T02:32:02;7.35;;;5.40;;
38089;SDS011;23904;52.322;10.232;2023-05-13T02:34:28;6.90;;;4.65;;
38089;SDS011;23904;52.322;10.232;2023-05-13T02:36:53;11.13;;;5.40;;
38089;SDS011;23904;52.322;10.232;2023-05-13T02:39:19;11.55;;;5.05;;
38089;SDS011;23904;52.322;10.232;2023-05-13T02:41:45;8.65;;;5.45;;
38089;SDS011;23904;52.322;10.232;2023-05-13T02:44:11;9.25;;;5.22;;
38089;SDS011;23904;52.322;10.232;2023-05-13T02:46:36;11.13;;;5.32;;
38089;SDS011;23904;52.322;10.232;2023-05-13T02:49:02;7.55;;;4.65;;
38089;SDS011;23904;52.322;10.232;2023-05-13T02:51:27;9.93;;;5.20;;
38089;SDS011;23904;52.322;10.232;2023-05-13T02:53:53;7.43;;;5.13;;
38089;SDS011;23904;52.322;10.232;2023-05-13T02:56:18;14.80;;;5.38;;
38089;SDS011;23904;52.322;10.232;2023-05-13T02:58:44;8.70;;;5.10;;
38089;SDS011;23904;52.322;10.232;2023-05-13T03:01:10;7.95;;;5.40;;
38089;SDS011;23904;52.322;10.232;2023-05-13T03:03:36;8.10;;;5.95;;
38089;SDS011;23904;52.322;10.232;2023-05-13T03:06:01;10.07;;;5.00;;
38089;SDS011;23904;52.322;10.232;2023-05-13T03:08:27;7.57;;;4.88;;
38089;SDS011;23904;52.322;10.232;2023-05-13T03:10:53;10.90;;;5.07;;
38089;SDS011;23904;52.322;10.232;2023-05-13T03:13:18;10.98;;;5.20;;
38089;SDS011;23904;52.322;10.232;2023-05-13T03:15:44;9.45;;;5.03;;
38089;SDS011;23904;52.322;10.232;2023-05-13T03:18:09;11.52;;;5.50;;
38089;SDS011;23904;52.322;10.232;2023-05-13T03:20:35;10.20;;;4.82;;
38089;SDS011;23904;52.322;10.232;2023-05-13T03:23:01;8.60;;;5.32;;
38089;SDS011;23904;52.322;10.232;2023-05-13T03:25:27;9.50;;;5.10;;
38089;SDS011;23904;52.322;10.232;2023-05-13T03:27:53;7.35;;;5.28;;
38089;SDS011;23904;52.322;10.232;2023-05-13T03:30:18;11.30;;;5.70;;
38089;SDS011;23904;52.322;10.232;2023-05-13T03:32:44;7.68;;;5.57;;
38089;SDS011;23904;52.322;10.232;2023-05-13T03:35:09;7.75;;;5.15;;
38089;SDS011;23904;52.322;10.232;2023-05-13T03:37:35;8.63;;;5.60;;
38089;SDS011;23904;52.322;10.232;2023-05-13T03:40:01;12.65;;;6.18;;
38089;SDS011;23904;52.322;10.232;2023-05-13T03:42:28;14.68;;;5.53;;
38089;SDS011;23904;52.322;10.232;2023-05-13T03:44:54;11.50;;;5.80;;
38089;SDS011;23904;52.322;10.232;2023-05-13T03:47:21;11.00;;;5.70;;
38089;SDS011;23904;52.322;10.232;2023-05-13T03:49:47;9.18;;;6.20;;
38089;SDS011;23904;52.322;10.232;2023-05-13T03:52:14;10.65;;;6.13;;
38089;SDS011;23904;52.322;10.232;2023-05-13T03:54:40;11.40;;;6.70;;
38089;SDS011;23904;52.322;10.232;2023-05-13T03:57:06;11.82;;;6.03;;
38089;SDS011;23904;52.322;10.232;2023-05-13T03:59:33;12.77;;;6.38;;
38089;SDS011;23904;52.322;10.232;2023-05-13T04:01:58;11.60;;;6.13;;
38089;SDS011;23904;52.322;10.232;2023-05-13T04:04:24;10.25;;;5.50;;
38089;SDS011;23904;52.322;10.232;2023-05-13T04:06:50;8.98;;;5.90;;
38089;SDS011;23904;52.322;10.232;2023-05-13T04:09:15;7.65;;;5.65;;
38089;SDS011;23904;52.322;10.232;2023-05-13T04:11:41;25.65;;;6.43;;
38089;SDS011;23904;52.322;10.232;2023-05-13T04:14:06;10.68;;;5.47;;
38089;SDS011;23904;52.322;10.232;2023-05-13T04:16:32;11.38;;;6.72;;
38089;SDS011;23904;52.322;10.232;2023-05-13T04:18:57;10.63;;;5.72;;
38089;SDS011;23904;52.322;10.232;2023-05-13T04:21:23;8.48;;;6.00;;
38089;SDS011;23904;52.322;10.232;2023-05-13T04:23:48;11.10;;;6.25;;
38089;SDS011;23904;52.322;10.232;2023-05-13T04:26:14;6.47;;;5.75;;
38089;SDS011;23904;52.322;10.232;2023-05-13T04:28:40;12.07;;;6.50;;
38089;SDS011;23904;52.322;10.232;2023-05-13T04:31:05;11.70;;;5.90;;
38089;SDS011;23904;52.322;10.232;2023-05-13T04:33:31;10.60;;;5.95;;
38089;SDS011;23904;52.322;10.232;2023-05-13T04:35:56;10.93;;;6.25;;
38089;SDS011;23904;52.322;10.232;2023-05-13T04:38:22;8.68;;;6.30;;
38089;SDS011;23904;52.322;10.232;2023-05-13T04:40:47;10.95;;;6.28;;
38089;SDS011;23904;52.322;10.232;2023-05-13T04:43:13;14.15;;;5.95;;
38089;SDS011;23904;52.322;10.232;2023-05-13T04:45:38;9.73;;;6.07;;
38089;SDS011;23904;52.322;10.232;2023-05-13T04:48:04;8.68;;;6.43;;
38089;SDS011;23904;52.322;10.232;2023-05-13T04:50:30;7.63;;;5.75;;
38089;SDS011;23904;52.322;10.232;2023-05-13T04:52:56;18.52;;;6.60;;
38089;SDS011;23904;52.322;10.232;2023-05-13T04:55:22;11.05;;;6.35;;
38089;SDS011;23904;52.322;10.232;2023-05-13T04:57:48;9.35;;;6.30;;
38089;SDS011;23904;52.322;10.232;2023-05-13T05:00:14;9.88;;;5.72;;
38089;SDS011;23904;52.322;10.232;2023-05-13T05:02:40;10.00;;;6.22;;
38089;SDS011;23904;52.322;10.232;2023-05-13T05:05:05;11.68;;;6.55;;
38089;SDS011;23904;52.322;10.232;2023-05-13T05:07:31;14.05;;;5.57;;
38089;SDS011;23904;52.322;10.232;2023-05-13T05:09:57;8.88;;;5.63;;
38089;SDS011;23904;52.322;10.232;2023-05-13T05:12:22;7.22;;;5.47;;
38089;SDS011;23904;52.322;10.232;2023-05-13T05:14:48;10.43;;;6.05;;
38089;SDS011;23904;52.322;10.232;2023-05-13T05:17:14;9.52;;;5.78;;
38089;SDS011;23904;52.322;10.232;2023-05-13T05:19:40;10.85;;;6.22;;
38089;SDS011;23904;52.322;10.232;2023-05-13T05:22:05;10.10;;;6.25;;
38089;SDS011;23904;52.322;10.232;2023-05-13T05:24:31;12.77;;;6.70;;
38089;SDS011;23904;52.322;10.232;2023-05-13T05:26:57;8.50;;;5.55;;
38089;SDS011;23904;52.322;10.232;2023-05-13T05:29:23;11.40;;;6.38;;
38089;SDS011;23904;52.322;10.232;2023-05-13T05:31:48;9.55;;;6.13;;
38089;SDS011;23904;52.322;10.232;2023-05-13T05:34:14;10.57;;;5.55;;
38089;SDS011;23904;52.322;10.232;2023-05-13T05:36:39;11.18;;;6.53;;
38089;SDS011;23904;52.322;10.232;2023-05-13T05:39:05;11.85;;;5.80;;
38089;SDS011;23904;52.322;10.232;2023-05-13T05:41:31;8.57;;;6.03;;
38089;SDS011;23904;52.322;10.232;2023-05-13T05:43:57;12.70;;;5.68;;
38089;SDS011;23904;52.322;10.232;2023-05-13T05:46:22;13.50;;;5.93;;
38089;SDS011;23904;52.322;10.232;2023-05-13T05:48:48;9.35;;;5.90;;
38089;SDS011;23904;52.322;10.232;2023-05-13T05:51:13;10.00;;;6.00;;
38089;SDS011;23904;52.322;10.232;2023-05-13T05:53:39;10.63;;;6.47;;
38089;SDS011;23904;52.322;10.232;2023-05-13T05:56:06;8.68;;;6.30;;
38089;SDS011;23904;52.322;10.232;2023-05-13T05:58:32;13.20;;;6.68;;
38089;SDS011;23904;52.322;10.232;2023-05-13T06:00:58;9.27;;;6.00;;
38089;SDS011;23904;52.322;10.232;2023-05-13T06:03:24;9.20;;;5.72;;
38089;SDS011;23904;52.322;10.232;2023-05-13T06:05:50;10.82;;;6.05;;
38089;SDS011;23904;52.322;10.232;2023-05-13T06:08:17;9.20;;;5.63;;
38089;SDS011;23904;52.322;10.232;2023-05-13T06:10:43;14.05;;;6.07;;
38089;SDS011;23904;52.322;10.232;2023-05-13T06:13:08;10.63;;;6.45;;
38089;SDS011;23904;52.322;10.232;2023-05-13T06:15:35;13.45;;;6.07;;
38089;SDS011;23904;52.322;10.232;2023-05-13T06:18:02;16.15;;;5.82;;
38089;SDS011;23904;52.322;10.232;2023-05-13T06:20:29;8.05;;;5.65;;
38089;SDS011;23904;52.322;10.232;2023-05-13T06:22:56;7.03;;;5.53;;
38089;SDS011;23904;52.322;10.232;2023-05-13T06:25:21;9.38;;;6.05;;
38089;SDS011;23904;52.322;10.232;2023-05-13T06:27:47;7.88;;;6.22;;
38089;SDS011;23904;52.322;10.232;2023-05-13T06:30:12;13.73;;;6.72;;
38089;SDS011;23904;52.322;10.232;2023-05-13T06:32:38;15.57;;;7.57;;
38089;SDS011;23904;52.322;10.232;2023-05-13T06:35:04;9.48;;;6.47;;
38089;SDS011;23904;52.322;10.232;2023-05-13T06:37:30;9.27;;;6.63;;
38089;SDS011;23904;52.322;10.232;2023-05-13T06:39:55;11.65;;;7.07;;
38089;SDS011;23904;52.322;10.232;2023-05-13T06:42:22;11.00;;;6.50;;
38089;SDS011;23904;52.322;10.232;2023-05-13T06:44:47;12.10;;;5.93;;
38089;SDS011;23904;52.322;10.232;2023-05-13T06:47:13;13.20;;;6.72;;
38089;SDS011;23904;52.322;10.232;2023-05-13T06:49:40;13.98;;;6.90;;
38089;SDS011;23904;52.322;10.232;2023-05-13T06:52:07;18.00;;;6.90;;
38089;SDS011;23904;52.322;10.232;2023-05-13T06:54:33;15.43;;;6.47;;
38089;SDS011;23904;52.322;10.232;2023-05-13T06:56:59;11.20;;;6.30;;
38089;SDS011;23904;52.322;10.232;2023-05-13T06:59:25;12.55;;;6.30;;
38089;SDS011;23904;52.322;10.232;2023-05-13T07:01:51;8.65;;;6.00;;
38089;SDS011;23904;52.322;10.232;2023-05-13T07:04:16;12.48;;;6.40;;
38089;SDS011;23904;52.322;10.232;2023-05-13T07:06:42;9.27;;;6.57;;
38089;SDS011;23904;52.322;10.232;2023-05-13T07:09:07;11.32;;;6.75;;
38089;SDS011;23904;52.322;10.232;2023-05-13T07:11:34;9.05;;;5.85;;
38089;SDS011;23904;52.322;10.232;2023-05-13T07:14:00;7.90;;;5.45;;
38089;SDS011;23904;52.322;10.232;2023-05-13T07:16:26;12.57;;;6.22;;
38089;SDS011;23904;52.322;10.232;2023-05-13T07:18:51;16.35;;;5.85;;
38089;SDS011;23904;52.322;10.232;2023-05-13T07:21:18;8.95;;;5.93;;
38089;SDS011;23904;52.322;10.232;2023-05-13T07:23:44;12.20;;;6.43;;
38089;SDS011;23904;52.322;10.232;2023-05-13T07:26:09;14.95;;;6.10;;
38089;SDS011;23904;52.322;10.232;2023-05-13T07:28:35;11.02;;;6.50;;
38089;SDS011;23904;52.322;10.232;2023-05-13T07:31:01;17.67;;;6.28;;
38089;SDS011;23904;52.322;10.232;2023-05-13T07:33:29;15.70;;;7.30;;
38089;SDS011;23904;52.322;10.232;2023-05-13T07:35:55;9.85;;;5.90;;
38089;SDS011;23904;52.322;10.232;2023-05-13T07:38:21;9.07;;;6.13;;
38089;SDS011;23904;52.322;10.232;2023-05-13T07:40:47;9.10;;;6.38;;
38089;SDS011;23904;52.322;10.232;2023-05-13T07:43:13;9.45;;;6.00;;
38089;SDS011;23904;52.322;10.232;2023-05-13T07:45:41;11.60;;;6.25;;
38089;SDS011;23904;52.322;10.232;2023-05-13T07:48:07;7.70;;;5.85;;
38089;SDS011;23904;52.322;10.232;2023-05-13T07:50:33;10.57;;;6.10;;
38089;SDS011;23904;52.322;10.232;2023-05-13T07:52:59;9.50;;;6.25;;
38089;SDS011;23904;52.322;10.232;2023-05-13T07:55:26;9.57;;;6.60;;
38089;SDS011;23904;52.322;10.232;2023-05-13T07:57:52;15.52;;;7.35;;
38089;SDS011;23904;52.322;10.232;2023-05-13T08:00:17;12.35;;;7.05;;
38089;SDS011;23904;52.322;10.232;2023-05-13T08:02:43;13.60;;;6.88;;
38089;SDS011;23904;52.322;10.232;2023-05-13T08:05:09;14.20;;;6.18;;
38089;SDS011;23904;52.322;10.232;2023-05-13T08:07:35;9.35;;;5.70;;
38089;SDS011;23904;52.322;10.232;2023-05-13T08:10:00;10.20;;;6.88;;
38089;SDS011;23904;52.322;10.232;2023-05-13T08:12:26;12.90;;;5.82;;
38089;SDS011;23904;52.322;10.232;2023-05-13T08:14:51;9.70;;;6.22;;
38089;SDS011;23904;52.322;10.232;2023-05-13T08:17:17;14.60;;;7.20;;
38089;SDS011;23904;52.322;10.232;2023-05-13T08:19:43;10.10;;;6.75;;
38089;SDS011;23904;52.322;10.232;2023-05-13T08:22:10;13.88;;;7.47;;
38089;SDS011;23904;52.322;10.232;2023-05-13T08:24:35;9.68;;;6.28;;
38089;SDS011;23904;52.322;10.232;2023-05-13T08:27:02;12.43;;;5.68;;
38089;SDS011;23904;52.322;10.232;2023-05-13T08:29:27;12.50;;;6.63;;
38089;SDS011;23904;52.322;10.232;2023-05-13T08:31:53;11.13;;;6.07;;
38089;SDS011;23904;52.322;10.232;2023-05-13T08:34:19;13.00;;;6.07;;
38089;SDS011;23904;52.322;10.232;2023-05-13T08:36:44;7.25;;;5.68;;
38089;SDS011;23904;52.322;10.232;2023-05-13T08:39:10;14.07;;;4.93;;
38089;SDS011;23904;52.322;10.232;2023-05-13T08:41:36;8.93;;;5.10;;
38089;SDS011;23904;52.322;10.232;2023-05-13T08:44:03;8.93;;;5.50;;
38089;SDS011;23904;52.322;10.232;2023-05-13T08:46:31;13.98;;;5.65;;
38089;SDS011;23904;52.322;10.232;2023-05-13T08:48:58;7.53;;;5.03;;
38089;SDS011;23904;52.322;10.232;2023-05-13T08:51:25;10.75;;;5.65;;
38089;SDS011;23904;52.322;10.232;2023-05-13T08:53:51;10.63;;;5.40;;
38089;SDS011;23904;52.322;10.232;2023-05-13T08:56:18;9.25;;;4.72;;
38089;SDS011;23904;52.322;10.232;2023-05-13T08:58:46;6.40;;;4.70;;
38089;SDS011;23904;52.322;10.232;2023-05-13T09:01:12;5.75;;;4.07;;
38089;SDS011;23904;52.322;10.232;2023-05-13T09:03:40;9.05;;;4.10;;
38089;SDS011;23904;52.322;10.232;2023-05-13T09:06:21;9.00;;;4.32;;
38089;SDS011;23904;52.322;10.232;2023-05-13T09:08:47;9.32;;;4.68;;
38089;SDS011;23904;52.322;10.232;2023-05-13T09:11:13;7.05;;;4.93;;
38089;SDS011;23904;52.322;10.232;2023-05-13T09:13:39;6.95;;;4.93;;
38089;SDS011;23904;52.322;10.232;2023-05-13T09:16:08;8.60;;;4.75;;
38089;SDS011;23904;52.322;10.232;2023-05-13T09:18:36;7.43;;;4.63;;
38089;SDS011;23904;52.322;10.232;2023-05-13T09:21:22;10.20;;;4.60;;
38089;SDS011;23904;52.322;10.232;2023-05-13T09:24:08;7.45;;;4.93;;
38089;SDS011;23904;52.322;10.232;2023-05-13T09:26:42;6.93;;;4.32;;
38089;SDS011;23904;52.322;10.232;2023-05-13T09:29:13;7.40;;;4.50;;
38089;SDS011;23904;52.322;10.232;2023-05-13T09:31:54;7.82;;;4.30;;
38089;SDS011;23904;52.322;10.232;2023-05-13T09:37:03;7.50;;;3.85;;
38089;SDS011;23904;52.322;10.232;2023-05-13T09:39:31;7.03;;;3.70;;
38089;SDS011;23904;52.322;10.232;2023-05-13T09:42:02;12.10;;;4.05;;
38089;SDS011;23904;52.322;10.232;2023-05-13T09:44:28;10.55;;;4.03;;
38089;SDS011;23904;52.322;10.232;2023-05-13T09:46:54;8.52;;;3.97;;
38089;SDS011;23904;52.322;10.232;2023-05-13T09:49:25;10.15;;;3.67;;
38089;SDS011;23904;52.322;10.232;2023-05-13T09:51:50;7.68;;;3.80;;
38089;SDS011;23904;52.322;10.232;2023-05-13T09:54:16;6.82;;;3.28;;
38089;SDS011;23904;52.322;10.232;2023-05-13T09:56:42;8.00;;;3.30;;
38089;SDS011;23904;52.322;10.232;2023-05-13T09:59:07;6.07;;;2.95;;
38089;SDS011;23904;52.322;10.232;2023-05-13T10:01:33;5.43;;;3.30;;
38089;SDS011;23904;52.322;10.232;2023-05-13T10:04:00;8.93;;;3.42;;
38089;SDS011;23904;52.322;10.232;2023-05-13T10:06:27;7.38;;;3.60;;
38089;SDS011;23904;52.322;10.232;2023-05-13T10:08:54;5.45;;;3.38;;
38089;SDS011;23904;52.322;10.232;2023-05-13T10:11:26;6.60;;;3.00;;
38089;SDS011;23904;52.322;10.232;2023-05-13T10:14:00;9.20;;;2.85;;
38089;SDS011;23904;52.322;10.232;2023-05-13T10:16:33;8.50;;;4.00;;
38089;SDS011;23904;52.322;10.232;2023-05-13T10:18:59;8.90;;;3.72;;
38089;SDS011;23904;52.322;10.232;2023-05-13T10:21:25;5.20;;;3.10;;
38089;SDS011;23904;52.322;10.232;2023-05-13T10:23:51;4.53;;;2.65;;
38089;SDS011;23904;52.322;10.232;2023-05-13T10:26:18;7.13;;;3.17;;
38089;SDS011;23904;52.322;10.232;2023-05-13T10:28:45;6.57;;;2.90;;
38089;SDS011;23904;52.322;10.232;2023-05-13T10:31:12;6.43;;;3.15;;
38089;SDS011;23904;52.322;10.232;2023-05-13T10:33:38;6.43;;;2.67;;
38089;SDS011;23904;52.322;10.232;2023-05-13T10:39:11;4.90;;;3.20;;
38089;SDS011;23904;52.322;10.232;2023-05-13T10:42:12;3.50;;;2.70;;
38089;SDS011;23904;52.322;10.232;2023-05-13T10:45:00;3.55;;;2.63;;
38089;SDS011;23904;52.322;10.232;2023-05-13T10:47:28;7.05;;;2.83;;
38089;SDS011;23904;52.322;10.232;2023-05-13T10:49:57;4.45;;;2.20;;
38089;SDS011;23904;52.322;10.232;2023-05-13T10:52:22;6.65;;;4.25;;
38089;SDS011;23904;52.322;10.232;2023-05-13T10:55:00;9.30;;;3.22;;
38089;SDS011;23904;52.322;10.232;2023-05-13T10:57:27;5.68;;;3.15;;
38089;SDS011;23904;52.322;10.232;2023-05-13T11:00:12;6.35;;;2.88;;
38089;SDS011;23904;52.322;10.232;2023-05-13T11:02:42;7.80;;;3.55;;
38089;SDS011;23904;52.322;10.232;2023-05-13T11:05:08;8.60;;;3.85;;
38089;SDS011;23904;52.322;10.232;2023-05-13T11:07:43;10.00;;;3.13;;
38089;SDS011;23904;52.322;10.232;2023-05-13T11:10:25;7.10;;;3.35;;
38089;SDS011;23904;52.322;10.232;2023-05-13T11:18:16;9.40;;;2.90;;
38089;SDS011;23904;52.322;10.232;2023-05-13T11:21:24;5.10;;;3.28;;
38089;SDS011;23904;52.322;10.232;2023-05-13T11:23:32;6.15;;;3.60;;
38089;SDS011;23904;52.322;10.232;2023-05-13T11:26:17;9.50;;;3.38;;
38089;SDS011;23904;52.322;10.232;2023-05-13T11:31:21;7.70;;;2.72;;
38089;SDS011;23904;52.322;10.232;2023-05-13T11:34:06;4.45;;;2.80;;
38089;SDS011;23904;52.322;10.232;2023-05-13T11:36:33;10.27;;;2.70;;
38089;SDS011;23904;52.322;10.232;2023-05-13T11:39:09;4.68;;;2.78;;
38089;SDS011;23904;52.322;10.232;2023-05-13T11:41:50;5.70;;;2.60;;
38089;SDS011;23904;52.322;10.232;2023-05-13T11:44:17;7.05;;;2.78;;
38089;SDS011;23904;52.322;10.232;2023-05-13T11:46:49;6.88;;;2.58;;
38089;SDS011;23904;52.322;10.232;2023-05-13T11:49:35;7.35;;;2.60;;
38089;SDS011;23904;52.322;10.232;2023-05-13T11:52:04;8.15;;;3.25;;
38089;SDS011;23904;52.322;10.232;2023-05-13T12:02:30;5.60;;;2.50;;
38089;SDS011;23904;52.322;10.232;2023-05-13T12:05:04;6.90;;;2.72;;
38089;SDS011;23904;52.322;10.232;2023-05-13T12:07:35;3.03;;;2.15;;
38089;SDS011;23904;52.322;10.232;2023-05-13T12:10:02;4.35;;;2.08;;
38089;SDS011;23904;52.322;10.232;2023-05-13T12:12:31;8.43;;;2.90;;
38089;SDS011;23904;52.322;10.232;2023-05-13T12:15:02;6.18;;;2.78;;
38089;SDS011;23904;52.322;10.232;2023-05-13T12:17:31;6.72;;;2.97;;
38089;SDS011;23904;52.322;10.232;2023-05-13T12:20:13;7.80;;;2.95;;
38089;SDS011;23904;52.322;10.232;2023-05-13T12:22:48;7.68;;;2.83;;
38089;SDS011;23904;52.322;10.232;2023-05-13T12:27:59;2.92;;;2.10;;
38089;SDS011;23904;52.322;10.232;2023-05-13T12:30:48;8.23;;;2.55;;
38089;SDS011;23904;52.322;10.232;2023-05-13T12:33:25;4.88;;;2.13;;
38089;SDS011;23904;52.322;10.232;2023-05-13T12:35:54;3.38;;;2.50;;
38089;SDS011;23904;52.322;10.232;2023-05-13T12:39:02;3.97;;;2.20;;
38089;SDS011;23904;52.322;10.232;2023-05-13T12:44:01;6.68;;;2.17;;
38089;SDS011;23904;52.322;10.232;2023-05-13T12:46:51;4.15;;;2.30;;
38089;SDS011;23904;52.322;10.232;2023-05-13T12:49:18;4.25;;;2.35;;
38089;SDS011;23904;52.322;10.232;2023-05-13T12:51:44;5.38;;;2.83;;
38089;SDS011;23904;52.322;10.232;2023-05-13T12:54:10;5.10;;;2.72;;
38089;SDS011;23904;52.322;10.232;2023-05-13T12:56:36;7.30;;;2.78;;
38089;SDS011;23904;52.322;10.232;2023-05-13T12:59:04;4.88;;;2.75;;
38089;SDS011;23904;52.322;10.232;2023-05-13T13:01:29;4.95;;;2.60;;
38089;SDS011;23904;52.322;10.232;2023-05-13T13:03:55;5.78;;;2.53;;
38089;SDS011;23904;52.322;10.232;2023-05-13T13:06:20;6.95;;;2.80;;
38089;SDS011;23904;52.322;10.232;2023-05-13T13:08:46;6.32;;;2.55;;
38089;SDS011;23904;52.322;10.232;2023-05-13T13:11:11;8.23;;;2.85;;
38089;SDS011;23904;52.322;10.232;2023-05-13T13:13:42;8.95;;;2.95;;
38089;SDS011;23904;52.322;10.232;2023-05-13T13:16:08;6.13;;;2.60;;
38089;SDS011;23904;52.322;10.232;2023-05-13T13:18:34;4.97;;;2.30;;
38089;SDS011;23904;52.322;10.232;2023-05-13T13:21:00;7.60;;;2.47;;
38089;SDS011;23904;52.322;10.232;2023-05-13T13:23:25;6.85;;;2.70;;
38089;SDS011;23904;52.322;10.232;2023-05-13T13:25:51;5.03;;;2.00;;
38089;SDS011;23904;52.322;10.232;2023-05-13T13:28:16;6.07;;;2.45;;
38089;SDS011;23904;52.322;10.232;2023-05-13T13:30:42;7.65;;;2.92;;
38089;SDS011;23904;52.322;10.232;2023-05-13T13:33:14;10.15;;;2.35;;
38089;SDS011;23904;52.322;10.232;2023-05-13T13:35:41;5.05;;;2.60;;
38089;SDS011;23904;52.322;10.232;2023-05-13T13:38:08;4.88;;;2.22;;
38089;SDS011;23904;52.322;10.232;2023-05-13T13:40:33;5.40;;;2.55;;
38089;SDS011;23904;52.322;10.232;2023-05-13T13:43:02;6.57;;;3.25;;
38089;SDS011;23904;52.322;10.232;2023-05-13T13:45:29;4.18;;;2.17;;
38089;SDS011;23904;52.322;10.232;2023-05-13T13:47:55;9.82;;;2.50;;
38089;SDS011;23904;52.322;10.232;2023-05-13T13:50:21;6.05;;;2.85;;
38089;SDS011;23904;52.322;10.232;2023-05-13T13:52:46;8.85;;;2.35;;
38089;SDS011;23904;52.322;10.232;2023-05-13T13:55:12;4.45;;;2.45;;
38089;SDS011;23904;52.322;10.232;2023-05-13T13:57:38;3.33;;;2.25;;
38089;SDS011;23904;52.322;10.232;2023-05-13T14:00:04;7.88;;;2.08;;
38089;SDS011;23904;52.322;10.232;2023-05-13T14:02:31;4.78;;;2.45;;
38089;SDS011;23904;52.322;10.232;2023-05-13T14:04:57;5.57;;;2.58;;
38089;SDS011;23904;52.322;10.232;2023-05-13T14:07:22;6.43;;;2.72;;
38089;SDS011;23904;52.322;10.232;2023-05-13T14:09:48;6.05;;;2.47;;
38089;SDS011;23904;52.322;10.232;2023-05-13T14:12:14;6.72;;;2.53;;
38089;SDS011;23904;52.322;10.232;2023-05-13T14:14:39;6.22;;;2.10;;
38089;SDS011;23904;52.322;10.232;2023-05-13T14:17:05;8.02;;;2.53;;
38089;SDS011;23904;52.322;10.232;2023-05-13T14:19:30;6.20;;;2.40;;
38089;SDS011;23904;52.322;10.232;2023-05-13T14:21:56;7.13;;;2.83;;
38089;SDS011;23904;52.322;10.232;2023-05-13T14:24:21;4.32;;;2.28;;
38089;SDS011;23904;52.322;10.232;2023-05-13T14:26:48;5.97;;;2.58;;
38089;SDS011;23904;52.322;10.232;2023-05-13T14:29:14;5.55;;;2.47;;
38089;SDS011;23904;52.322;10.232;2023-05-13T14:31:39;5.47;;;2.03;;
38089;SDS011;23904;52.322;10.232;2023-05-13T14:34:05;8.95;;;2.40;;
38089;SDS011;23904;52.322;10.232;2023-05-13T14:36:31;4.70;;;2.20;;
38089;SDS011;23904;52.322;10.232;2023-05-13T14:38:56;6.13;;;2.17;;
38089;SDS011;23904;52.322;10.232;2023-05-13T14:41:22;3.85;;;2.22;;
38089;SDS011;23904;52.322;10.232;2023-05-13T14:43:49;4.30;;;2.72;;
38089;SDS011;23904;52.322;10.232;2023-05-13T14:46:15;4.65;;;2.22;;
38089;SDS011;23904;52.322;10.232;2023-05-13T14:48:41;3.85;;;2.35;;
38089;SDS011;23904;52.322;10.232;2023-05-13T14:51:07;4.55;;;2.05;;
38089;SDS011;23904;52.322;10.232;2023-05-13T14:53:34;6.15;;;2.97;;
38089;SDS011;23904;52.322;10.232;2023-05-13T14:56:00;4.45;;;2.13;;
38089;SDS011;23904;52.322;10.232;2023-05-13T14:58:26;6.18;;;2.28;;
38089;SDS011;23904;52.322;10.232;2023-05-13T15:00:52;4.75;;;2.25;;
38089;SDS011;23904;52.322;10.232;2023-05-13T15:03:18;9.65;;;2.42;;